sensor_id;sensor_type;location;lat;lon;timestamp;temperature;humidity
254;DHT22;590;48.772;8.846;2023-05-10T00:00:16;14.50;99.90
254;DHT22;590;48.772;8.846;2023-05-10T00:02:45;14.50;99.90
254;DHT22;590;48.772;8.846;2023-05-10T00:05:14;14.40;99.90
254;DHT22;590;48.772;8.846;2023-05-10T00:07:42;14.40;99.90
254;DHT22;590;48.772;8.846;2023-05-10T00:10:11;14.40;99.90
254;DHT22;590;48.772;8.846;2023-05-10T00:12:40;14.40;99.90
254;DHT22;590;48.772;8.846;2023-05-10T00:15:09;14.40;99.90
254;DHT22;590;48.772;8.846;2023-05-10T00:17:37;14.40;99.90
254;DHT22;590;48.772;8.846;2023-05-10T00:20:06;14.30;99.90
254;DHT22;590;48.772;8.846;2023-05-10T00:22:34;14.30;99.90
254;DHT22;590;48.772;8.846;2023-05-10T00:25:03;14.30;99.90
254;DHT22;590;48.772;8.846;2023-05-10T00:27:31;14.30;99.90
254;DHT22;590;48.772;8.846;2023-05-10T00:29:59;14.30;99.90
254;DHT22;590;48.772;8.846;2023-05-10T00:32:28;14.30;99.90
254;DHT22;590;48.772;8.846;2023-05-10T00:34:56;14.30;99.90
254;DHT22;590;48.772;8.846;2023-05-10T00:37:24;14.20;99.90
254;DHT22;590;48.772;8.846;2023-05-10T00:39:52;14.20;99.90
254;DHT22;590;48.772;8.846;2023-05-10T00:42:20;14.20;99.90
254;DHT22;590;48.772;8.846;2023-05-10T00:44:48;14.10;99.90
254;DHT22;590;48.772;8.846;2023-05-10T00:47:17;14.10;99.90
254;DHT22;590;48.772;8.846;2023-05-10T00:49:46;14.10;99.90
254;DHT22;590;48.772;8.846;2023-05-10T00:52:14;14.10;99.90
254;DHT22;590;48.772;8.846;2023-05-10T00:54:42;14.10;99.90
254;DHT22;590;48.772;8.846;2023-05-10T00:57:11;14.10;99.90
254;DHT22;590;48.772;8.846;2023-05-10T00:59:39;14.10;99.90
254;DHT22;590;48.772;8.846;2023-05-10T01:02:07;14.10;99.90
254;DHT22;590;48.772;8.846;2023-05-10T01:04:35;14.10;99.90
254;DHT22;590;48.772;8.846;2023-05-10T01:07:05;14.10;99.90
254;DHT22;590;48.772;8.846;2023-05-10T01:09:33;14.10;99.90
254;DHT22;590;48.772;8.846;2023-05-10T01:12:01;14.10;99.90
254;DHT22;590;48.772;8.846;2023-05-10T01:14:30;14.10;99.90
254;DHT22;590;48.772;8.846;2023-05-10T01:16:59;14.10;99.90
254;DHT22;590;48.772;8.846;2023-05-10T01:19:29;14.10;99.90
254;DHT22;590;48.772;8.846;2023-05-10T01:22:09;14.00;99.90
254;DHT22;590;48.772;8.846;2023-05-10T01:25:07;14.00;99.90
254;DHT22;590;48.772;8.846;2023-05-10T01:27:57;14.00;99.90
254;DHT22;590;48.772;8.846;2023-05-10T01:31:02;14.00;99.90
254;DHT22;590;48.772;8.846;2023-05-10T01:33:38;14.00;99.90
254;DHT22;590;48.772;8.846;2023-05-10T01:36:13;14.00;99.90
254;DHT22;590;48.772;8.846;2023-05-10T01:38:47;14.00;99.90
254;DHT22;590;48.772;8.846;2023-05-10T01:41:19;14.00;99.90
254;DHT22;590;48.772;8.846;2023-05-10T01:43:55;14.00;99.90
254;DHT22;590;48.772;8.846;2023-05-10T01:46:31;14.00;99.90
254;DHT22;590;48.772;8.846;2023-05-10T01:49:05;14.00;99.90
254;DHT22;590;48.772;8.846;2023-05-10T01:51:41;14.00;99.90
254;DHT22;590;48.772;8.846;2023-05-10T01:54:14;14.00;99.90
254;DHT22;590;48.772;8.846;2023-05-10T01:56:44;14.00;99.90
254;DHT22;590;48.772;8.846;2023-05-10T01:59:15;14.00;99.90
254;DHT22;590;48.772;8.846;2023-05-10T02:01:45;13.90;99.90
254;DHT22;590;48.772;8.846;2023-05-10T02:04:16;13.90;99.90
254;DHT22;590;48.772;8.846;2023-05-10T02:06:46;14.00;99.90
254;DHT22;590;48.772;8.846;2023-05-10T02:09:15;13.90;99.90
254;DHT22;590;48.772;8.846;2023-05-10T02:11:47;13.90;99.90
254;DHT22;590;48.772;8.846;2023-05-10T02:14:15;13.80;99.90
254;DHT22;590;48.772;8.846;2023-05-10T02:16:45;13.80;99.90
254;DHT22;590;48.772;8.846;2023-05-10T02:19:15;13.80;99.90
254;DHT22;590;48.772;8.846;2023-05-10T02:21:45;13.70;99.90
254;DHT22;590;48.772;8.846;2023-05-10T02:24:15;13.70;99.90
254;DHT22;590;48.772;8.846;2023-05-10T02:26:44;13.70;99.90
254;DHT22;590;48.772;8.846;2023-05-10T02:29:14;13.60;99.90
254;DHT22;590;48.772;8.846;2023-05-10T02:31:43;13.60;99.90
254;DHT22;590;48.772;8.846;2023-05-10T02:34:12;13.60;99.90
254;DHT22;590;48.772;8.846;2023-05-10T02:36:43;13.60;99.90
254;DHT22;590;48.772;8.846;2023-05-10T02:39:11;13.60;99.90
254;DHT22;590;48.772;8.846;2023-05-10T02:41:41;13.60;99.90
254;DHT22;590;48.772;8.846;2023-05-10T02:44:10;13.70;99.90
254;DHT22;590;48.772;8.846;2023-05-10T02:46:39;13.70;99.90
254;DHT22;590;48.772;8.846;2023-05-10T02:49:07;13.60;99.90
254;DHT22;590;48.772;8.846;2023-05-10T02:51:39;13.60;99.90
254;DHT22;590;48.772;8.846;2023-05-10T02:54:13;13.60;99.90
254;DHT22;590;48.772;8.846;2023-05-10T02:56:47;13.60;99.90
254;DHT22;590;48.772;8.846;2023-05-10T02:59:18;13.60;99.90
254;DHT22;590;48.772;8.846;2023-05-10T03:01:46;13.60;99.90
254;DHT22;590;48.772;8.846;2023-05-10T03:04:14;13.60;99.90
254;DHT22;590;48.772;8.846;2023-05-10T03:06:43;13.60;99.90
254;DHT22;590;48.772;8.846;2023-05-10T03:09:13;13.60;99.90
254;DHT22;590;48.772;8.846;2023-05-10T03:11:50;13.60;99.90
254;DHT22;590;48.772;8.846;2023-05-10T03:14:33;13.60;99.90
254;DHT22;590;48.772;8.846;2023-05-10T03:17:06;13.60;99.90
254;DHT22;590;48.772;8.846;2023-05-10T03:19:43;13.60;99.90
254;DHT22;590;48.772;8.846;2023-05-10T03:22:19;13.60;99.90
254;DHT22;590;48.772;8.846;2023-05-10T03:24:51;13.60;99.90
254;DHT22;590;48.772;8.846;2023-05-10T03:27:22;13.60;99.90
254;DHT22;590;48.772;8.846;2023-05-10T03:29:52;13.60;99.90
254;DHT22;590;48.772;8.846;2023-05-10T03:32:21;13.60;99.90
254;DHT22;590;48.772;8.846;2023-05-10T03:34:49;13.70;99.90
254;DHT22;590;48.772;8.846;2023-05-10T03:37:17;13.70;99.90
254;DHT22;590;48.772;8.846;2023-05-10T03:39:45;13.70;99.90
254;DHT22;590;48.772;8.846;2023-05-10T03:42:15;13.60;99.90
254;DHT22;590;48.772;8.846;2023-05-10T03:44:44;13.70;99.90
254;DHT22;590;48.772;8.846;2023-05-10T03:47:12;13.70;99.90
254;DHT22;590;48.772;8.846;2023-05-10T03:49:40;13.70;99.90
254;DHT22;590;48.772;8.846;2023-05-10T03:52:08;13.60;99.90
254;DHT22;590;48.772;8.846;2023-05-10T03:54:36;13.70;99.90
254;DHT22;590;48.772;8.846;2023-05-10T03:57:04;13.70;99.90
254;DHT22;590;48.772;8.846;2023-05-10T03:59:33;13.70;99.90
254;DHT22;590;48.772;8.846;2023-05-10T04:02:01;13.70;99.90
254;DHT22;590;48.772;8.846;2023-05-10T04:04:29;13.70;99.90
254;DHT22;590;48.772;8.846;2023-05-10T04:06:57;13.70;99.90
254;DHT22;590;48.772;8.846;2023-05-10T04:09:25;13.70;99.90
254;DHT22;590;48.772;8.846;2023-05-10T04:11:54;13.70;99.90
254;DHT22;590;48.772;8.846;2023-05-10T04:14:21;13.70;99.90
254;DHT22;590;48.772;8.846;2023-05-10T04:16:51;13.70;99.90
254;DHT22;590;48.772;8.846;2023-05-10T04:19:19;13.80;99.90
254;DHT22;590;48.772;8.846;2023-05-10T04:21:47;13.80;99.90
254;DHT22;590;48.772;8.846;2023-05-10T04:24:15;13.80;99.90
254;DHT22;590;48.772;8.846;2023-05-10T04:26:43;13.70;99.90
254;DHT22;590;48.772;8.846;2023-05-10T04:29:12;13.70;99.90
254;DHT22;590;48.772;8.846;2023-05-10T04:31:40;13.70;99.90
254;DHT22;590;48.772;8.846;2023-05-10T04:34:09;13.70;99.90
254;DHT22;590;48.772;8.846;2023-05-10T04:36:37;13.70;99.90
254;DHT22;590;48.772;8.846;2023-05-10T04:39:05;13.80;99.90
254;DHT22;590;48.772;8.846;2023-05-10T04:41:33;13.80;99.90
254;DHT22;590;48.772;8.846;2023-05-10T04:44:01;13.80;99.90
254;DHT22;590;48.772;8.846;2023-05-10T04:46:29;13.80;99.90
254;DHT22;590;48.772;8.846;2023-05-10T04:48:57;13.70;99.90
254;DHT22;590;48.772;8.846;2023-05-10T04:51:26;13.70;99.90
254;DHT22;590;48.772;8.846;2023-05-10T04:53:54;13.80;99.90
254;DHT22;590;48.772;8.846;2023-05-10T04:56:32;13.80;99.90
254;DHT22;590;48.772;8.846;2023-05-10T04:59:00;13.80;99.90
254;DHT22;590;48.772;8.846;2023-05-10T05:01:28;13.80;99.90
254;DHT22;590;48.772;8.846;2023-05-10T05:03:56;13.80;99.90
254;DHT22;590;48.772;8.846;2023-05-10T05:06:24;13.80;99.90
254;DHT22;590;48.772;8.846;2023-05-10T05:08:55;13.90;99.90
254;DHT22;590;48.772;8.846;2023-05-10T05:11:23;13.90;99.90
254;DHT22;590;48.772;8.846;2023-05-10T05:13:52;13.90;99.90
254;DHT22;590;48.772;8.846;2023-05-10T05:16:20;14.00;99.90
254;DHT22;590;48.772;8.846;2023-05-10T05:18:48;14.00;99.90
254;DHT22;590;48.772;8.846;2023-05-10T05:21:17;14.10;99.90
254;DHT22;590;48.772;8.846;2023-05-10T05:23:46;14.10;99.90
254;DHT22;590;48.772;8.846;2023-05-10T05:26:15;14.10;99.90
254;DHT22;590;48.772;8.846;2023-05-10T05:28:43;14.20;99.90
254;DHT22;590;48.772;8.846;2023-05-10T05:31:11;14.20;99.90
254;DHT22;590;48.772;8.846;2023-05-10T05:33:40;14.30;99.90
254;DHT22;590;48.772;8.846;2023-05-10T05:36:09;14.30;99.90
254;DHT22;590;48.772;8.846;2023-05-10T05:38:36;14.40;99.90
254;DHT22;590;48.772;8.846;2023-05-10T05:41:05;14.40;99.90
254;DHT22;590;48.772;8.846;2023-05-10T05:43:34;14.50;99.90
254;DHT22;590;48.772;8.846;2023-05-10T05:46:04;14.50;99.90
254;DHT22;590;48.772;8.846;2023-05-10T05:48:32;14.50;99.90
254;DHT22;590;48.772;8.846;2023-05-10T05:51:00;14.50;99.90
254;DHT22;590;48.772;8.846;2023-05-10T05:53:29;14.40;99.90
254;DHT22;590;48.772;8.846;2023-05-10T05:55:58;14.40;99.90
254;DHT22;590;48.772;8.846;2023-05-10T05:58:26;14.40;99.90
254;DHT22;590;48.772;8.846;2023-05-10T06:00:56;14.40;99.90
254;DHT22;590;48.772;8.846;2023-05-10T06:03:24;14.40;99.90
254;DHT22;590;48.772;8.846;2023-05-10T06:05:52;14.40;99.90
254;DHT22;590;48.772;8.846;2023-05-10T06:08:20;14.40;99.90
254;DHT22;590;48.772;8.846;2023-05-10T06:10:48;14.40;99.90
254;DHT22;590;48.772;8.846;2023-05-10T06:13:16;14.40;99.90
254;DHT22;590;48.772;8.846;2023-05-10T06:15:44;14.50;99.90
254;DHT22;590;48.772;8.846;2023-05-10T06:18:14;14.50;99.90
254;DHT22;590;48.772;8.846;2023-05-10T06:20:42;14.50;99.90
254;DHT22;590;48.772;8.846;2023-05-10T06:23:10;14.50;99.90
254;DHT22;590;48.772;8.846;2023-05-10T06:25:38;14.50;99.90
254;DHT22;590;48.772;8.846;2023-05-10T06:28:06;14.50;99.90
254;DHT22;590;48.772;8.846;2023-05-10T06:30:36;14.60;99.90
254;DHT22;590;48.772;8.846;2023-05-10T06:33:04;14.70;99.90
254;DHT22;590;48.772;8.846;2023-05-10T06:35:34;14.80;99.90
254;DHT22;590;48.772;8.846;2023-05-10T06:38:01;15.00;99.90
254;DHT22;590;48.772;8.846;2023-05-10T06:40:29;15.20;99.90
254;DHT22;590;48.772;8.846;2023-05-10T06:42:58;15.50;99.90
254;DHT22;590;48.772;8.846;2023-05-10T06:45:26;15.70;99.90
254;DHT22;590;48.772;8.846;2023-05-10T06:47:54;15.90;99.90
254;DHT22;590;48.772;8.846;2023-05-10T06:50:22;16.10;99.90
254;DHT22;590;48.772;8.846;2023-05-10T06:52:51;16.20;99.90
254;DHT22;590;48.772;8.846;2023-05-10T06:55:19;16.30;99.90
254;DHT22;590;48.772;8.846;2023-05-10T06:57:47;16.50;99.90
254;DHT22;590;48.772;8.846;2023-05-10T07:00:16;16.50;99.90
254;DHT22;590;48.772;8.846;2023-05-10T07:02:45;16.60;99.90
254;DHT22;590;48.772;8.846;2023-05-10T07:05:13;16.70;99.90
254;DHT22;590;48.772;8.846;2023-05-10T07:07:42;16.80;99.90
254;DHT22;590;48.772;8.846;2023-05-10T07:10:11;16.80;99.90
254;DHT22;590;48.772;8.846;2023-05-10T07:12:40;16.80;99.90
254;DHT22;590;48.772;8.846;2023-05-10T07:15:09;16.80;99.90
254;DHT22;590;48.772;8.846;2023-05-10T07:17:37;16.80;99.90
254;DHT22;590;48.772;8.846;2023-05-10T07:20:06;16.80;99.90
254;DHT22;590;48.772;8.846;2023-05-10T07:22:35;16.70;99.90
254;DHT22;590;48.772;8.846;2023-05-10T07:25:03;16.80;99.90
254;DHT22;590;48.772;8.846;2023-05-10T07:27:33;16.90;99.90
254;DHT22;590;48.772;8.846;2023-05-10T07:30:01;17.00;99.90
254;DHT22;590;48.772;8.846;2023-05-10T07:32:29;17.00;99.90
254;DHT22;590;48.772;8.846;2023-05-10T07:34:57;17.20;99.90
254;DHT22;590;48.772;8.846;2023-05-10T07:37:25;17.20;99.30
254;DHT22;590;48.772;8.846;2023-05-10T07:39:53;17.20;98.20
254;DHT22;590;48.772;8.846;2023-05-10T07:42:21;17.30;99.00
254;DHT22;590;48.772;8.846;2023-05-10T07:44:51;17.40;98.10
254;DHT22;590;48.772;8.846;2023-05-10T07:47:18;17.40;99.10
254;DHT22;590;48.772;8.846;2023-05-10T07:49:47;17.50;98.40
254;DHT22;590;48.772;8.846;2023-05-10T07:52:15;17.50;98.70
254;DHT22;590;48.772;8.846;2023-05-10T07:54:43;17.60;99.40
254;DHT22;590;48.772;8.846;2023-05-10T07:57:11;17.70;98.50
254;DHT22;590;48.772;8.846;2023-05-10T07:59:41;17.80;97.20
254;DHT22;590;48.772;8.846;2023-05-10T08:02:11;17.70;94.00
254;DHT22;590;48.772;8.846;2023-05-10T08:04:39;17.70;95.90
254;DHT22;590;48.772;8.846;2023-05-10T08:07:07;17.70;96.20
254;DHT22;590;48.772;8.846;2023-05-10T08:09:36;17.70;95.90
254;DHT22;590;48.772;8.846;2023-05-10T08:12:04;17.70;94.50
254;DHT22;590;48.772;8.846;2023-05-10T08:14:49;17.60;94.90
254;DHT22;590;48.772;8.846;2023-05-10T08:17:18;17.60;95.10
254;DHT22;590;48.772;8.846;2023-05-10T08:19:49;17.60;95.00
254;DHT22;590;48.772;8.846;2023-05-10T08:22:17;17.60;92.40
254;DHT22;590;48.772;8.846;2023-05-10T08:24:45;17.50;90.70
254;DHT22;590;48.772;8.846;2023-05-10T08:27:13;17.50;90.90
254;DHT22;590;48.772;8.846;2023-05-10T08:29:41;17.50;90.10
254;DHT22;590;48.772;8.846;2023-05-10T08:32:16;17.70;90.10
254;DHT22;590;48.772;8.846;2023-05-10T08:34:45;17.70;88.80
254;DHT22;590;48.772;8.846;2023-05-10T08:37:13;17.80;87.60
254;DHT22;590;48.772;8.846;2023-05-10T08:39:41;17.90;85.00
254;DHT22;590;48.772;8.846;2023-05-10T08:42:09;17.90;85.40
254;DHT22;590;48.772;8.846;2023-05-10T08:44:38;17.90;82.00
254;DHT22;590;48.772;8.846;2023-05-10T08:47:06;17.90;84.10
254;DHT22;590;48.772;8.846;2023-05-10T08:49:37;18.00;82.20
254;DHT22;590;48.772;8.846;2023-05-10T08:52:07;18.10;80.40
254;DHT22;590;48.772;8.846;2023-05-10T08:54:36;18.20;82.50
254;DHT22;590;48.772;8.846;2023-05-10T08:57:04;18.20;79.70
254;DHT22;590;48.772;8.846;2023-05-10T08:59:33;18.40;80.20
254;DHT22;590;48.772;8.846;2023-05-10T09:02:01;18.70;77.20
254;DHT22;590;48.772;8.846;2023-05-10T09:04:30;18.90;77.70
254;DHT22;590;48.772;8.846;2023-05-10T09:06:59;19.20;74.20
254;DHT22;590;48.772;8.846;2023-05-10T09:09:29;19.60;73.10
254;DHT22;590;48.772;8.846;2023-05-10T09:11:57;19.90;68.20
254;DHT22;590;48.772;8.846;2023-05-10T09:14:25;20.10;66.10
254;DHT22;590;48.772;8.846;2023-05-10T09:16:54;20.30;60.40
254;DHT22;590;48.772;8.846;2023-05-10T09:19:22;20.50;59.60
254;DHT22;590;48.772;8.846;2023-05-10T09:21:50;20.40;55.00
254;DHT22;590;48.772;8.846;2023-05-10T09:24:18;20.30;55.60
254;DHT22;590;48.772;8.846;2023-05-10T09:26:48;20.20;55.80
254;DHT22;590;48.772;8.846;2023-05-10T09:29:16;20.10;56.60
254;DHT22;590;48.772;8.846;2023-05-10T09:31:46;20.20;57.00
254;DHT22;590;48.772;8.846;2023-05-10T09:34:18;20.30;55.60
254;DHT22;590;48.772;8.846;2023-05-10T09:36:51;20.50;57.40
254;DHT22;590;48.772;8.846;2023-05-10T09:39:20;20.70;56.00
254;DHT22;590;48.772;8.846;2023-05-10T09:41:50;20.60;47.30
254;DHT22;590;48.772;8.846;2023-05-10T09:44:19;20.50;49.60
254;DHT22;590;48.772;8.846;2023-05-10T09:46:50;20.30;47.10
254;DHT22;590;48.772;8.846;2023-05-10T09:49:20;20.30;47.60
254;DHT22;590;48.772;8.846;2023-05-10T09:52:01;20.30;51.20
254;DHT22;590;48.772;8.846;2023-05-10T09:54:30;20.20;48.30
254;DHT22;590;48.772;8.846;2023-05-10T09:57:00;20.20;48.10
254;DHT22;590;48.772;8.846;2023-05-10T09:59:29;20.20;48.60
254;DHT22;590;48.772;8.846;2023-05-10T10:01:58;20.20;44.00
254;DHT22;590;48.772;8.846;2023-05-10T10:04:27;20.20;41.90
254;DHT22;590;48.772;8.846;2023-05-10T10:07:03;20.20;45.30
254;DHT22;590;48.772;8.846;2023-05-10T10:09:31;20.20;43.70
254;DHT22;590;48.772;8.846;2023-05-10T10:12:02;20.30;46.10
254;DHT22;590;48.772;8.846;2023-05-10T10:14:30;20.20;43.90
254;DHT22;590;48.772;8.846;2023-05-10T10:17:00;20.10;45.00
254;DHT22;590;48.772;8.846;2023-05-10T10:19:33;19.60;41.50
254;DHT22;590;48.772;8.846;2023-05-10T10:22:02;19.20;44.60
254;DHT22;590;48.772;8.846;2023-05-10T10:24:31;19.00;44.80
254;DHT22;590;48.772;8.846;2023-05-10T10:27:09;18.80;46.50
254;DHT22;590;48.772;8.846;2023-05-10T10:29:45;18.70;46.80
254;DHT22;590;48.772;8.846;2023-05-10T10:32:22;18.50;50.00
254;DHT22;590;48.772;8.846;2023-05-10T10:34:54;18.40;51.40
254;DHT22;590;48.772;8.846;2023-05-10T10:37:23;18.20;52.80
254;DHT22;590;48.772;8.846;2023-05-10T10:39:51;18.20;52.70
254;DHT22;590;48.772;8.846;2023-05-10T10:42:45;18.10;52.80
254;DHT22;590;48.772;8.846;2023-05-10T10:45:13;18.10;57.90
254;DHT22;590;48.772;8.846;2023-05-10T10:47:42;18.00;61.20
254;DHT22;590;48.772;8.846;2023-05-10T10:50:10;18.00;60.00
254;DHT22;590;48.772;8.846;2023-05-10T10:52:40;18.00;59.60
254;DHT22;590;48.772;8.846;2023-05-10T10:55:09;18.00;59.70
254;DHT22;590;48.772;8.846;2023-05-10T10:57:46;18.00;60.00
254;DHT22;590;48.772;8.846;2023-05-10T11:00:23;18.00;59.00
254;DHT22;590;48.772;8.846;2023-05-10T11:02:52;18.00;58.30
254;DHT22;590;48.772;8.846;2023-05-10T11:05:39;18.00;60.40
254;DHT22;590;48.772;8.846;2023-05-10T11:08:14;18.00;70.20
254;DHT22;590;48.772;8.846;2023-05-10T11:11:01;18.00;69.30
254;DHT22;590;48.772;8.846;2023-05-10T11:13:33;18.00;66.20
254;DHT22;590;48.772;8.846;2023-05-10T11:16:13;18.10;64.50
254;DHT22;590;48.772;8.846;2023-05-10T11:19:01;18.10;65.70
254;DHT22;590;48.772;8.846;2023-05-10T11:21:30;18.20;67.30
254;DHT22;590;48.772;8.846;2023-05-10T11:23:59;18.20;68.80
254;DHT22;590;48.772;8.846;2023-05-10T11:26:34;18.30;68.00
254;DHT22;590;48.772;8.846;2023-05-10T11:29:03;18.40;66.60
254;DHT22;590;48.772;8.846;2023-05-10T11:31:32;18.40;67.00
254;DHT22;590;48.772;8.846;2023-05-10T11:34:00;18.50;66.50
254;DHT22;590;48.772;8.846;2023-05-10T11:36:33;18.60;65.00
254;DHT22;590;48.772;8.846;2023-05-10T11:39:01;18.60;62.60
254;DHT22;590;48.772;8.846;2023-05-10T11:41:30;18.70;63.60
254;DHT22;590;48.772;8.846;2023-05-10T11:43:59;18.70;59.50
254;DHT22;590;48.772;8.846;2023-05-10T11:46:28;18.80;58.60
254;DHT22;590;48.772;8.846;2023-05-10T11:48:58;18.70;56.60
254;DHT22;590;48.772;8.846;2023-05-10T11:51:28;18.60;57.90
254;DHT22;590;48.772;8.846;2023-05-10T11:53:57;18.60;59.30
254;DHT22;590;48.772;8.846;2023-05-10T11:56:25;18.60;58.90
254;DHT22;590;48.772;8.846;2023-05-10T11:58:55;18.70;58.20
254;DHT22;590;48.772;8.846;2023-05-10T12:01:23;18.80;54.50
254;DHT22;590;48.772;8.846;2023-05-10T12:03:55;18.90;50.10
254;DHT22;590;48.772;8.846;2023-05-10T12:06:27;19.00;50.10
254;DHT22;590;48.772;8.846;2023-05-10T12:08:55;19.10;50.40
254;DHT22;590;48.772;8.846;2023-05-10T12:11:25;19.30;42.80
254;DHT22;590;48.772;8.846;2023-05-10T12:13:54;19.30;42.90
254;DHT22;590;48.772;8.846;2023-05-10T12:16:24;19.40;38.60
254;DHT22;590;48.772;8.846;2023-05-10T12:18:56;19.40;39.80
254;DHT22;590;48.772;8.846;2023-05-10T12:21:24;19.30;37.00
254;DHT22;590;48.772;8.846;2023-05-10T12:23:54;19.20;34.20
254;DHT22;590;48.772;8.846;2023-05-10T12:26:23;19.10;36.30
254;DHT22;590;48.772;8.846;2023-05-10T12:28:53;19.00;37.60
254;DHT22;590;48.772;8.846;2023-05-10T12:31:21;19.00;39.10
254;DHT22;590;48.772;8.846;2023-05-10T12:33:49;18.90;38.80
254;DHT22;590;48.772;8.846;2023-05-10T12:36:23;18.90;37.50
254;DHT22;590;48.772;8.846;2023-05-10T12:39:02;18.80;38.70
254;DHT22;590;48.772;8.846;2023-05-10T12:41:31;18.70;39.20
254;DHT22;590;48.772;8.846;2023-05-10T12:43:59;18.70;39.60
254;DHT22;590;48.772;8.846;2023-05-10T12:46:27;18.70;36.60
254;DHT22;590;48.772;8.846;2023-05-10T12:48:56;18.70;36.80
254;DHT22;590;48.772;8.846;2023-05-10T12:51:36;18.60;37.80
254;DHT22;590;48.772;8.846;2023-05-10T12:54:04;18.60;38.50
254;DHT22;590;48.772;8.846;2023-05-10T12:56:32;18.70;37.10
254;DHT22;590;48.772;8.846;2023-05-10T12:59:00;18.90;38.80
254;DHT22;590;48.772;8.846;2023-05-10T13:01:28;19.20;38.40
254;DHT22;590;48.772;8.846;2023-05-10T13:03:56;19.40;37.40
254;DHT22;590;48.772;8.846;2023-05-10T13:06:24;19.60;35.30
254;DHT22;590;48.772;8.846;2023-05-10T13:08:53;19.80;30.30
254;DHT22;590;48.772;8.846;2023-05-10T13:11:21;20.00;31.20
254;DHT22;590;48.772;8.846;2023-05-10T13:13:51;20.10;30.40
254;DHT22;590;48.772;8.846;2023-05-10T13:16:19;20.20;25.60
254;DHT22;590;48.772;8.846;2023-05-10T13:18:47;20.20;25.40
254;DHT22;590;48.772;8.846;2023-05-10T13:21:15;20.30;25.20
254;DHT22;590;48.772;8.846;2023-05-10T13:23:43;20.20;25.60
254;DHT22;590;48.772;8.846;2023-05-10T13:26:12;20.20;21.50
254;DHT22;590;48.772;8.846;2023-05-10T13:28:40;20.00;22.70
254;DHT22;590;48.772;8.846;2023-05-10T13:31:08;20.00;22.20
254;DHT22;590;48.772;8.846;2023-05-10T13:33:37;20.00;22.60
254;DHT22;590;48.772;8.846;2023-05-10T13:36:05;20.00;21.20
254;DHT22;590;48.772;8.846;2023-05-10T13:38:34;20.00;19.40
254;DHT22;590;48.772;8.846;2023-05-10T13:41:02;20.00;20.20
254;DHT22;590;48.772;8.846;2023-05-10T13:43:31;20.00;20.50
254;DHT22;590;48.772;8.846;2023-05-10T13:45:59;20.00;19.10
254;DHT22;590;48.772;8.846;2023-05-10T13:48:27;20.00;21.30
254;DHT22;590;48.772;8.846;2023-05-10T13:50:57;20.00;21.90
254;DHT22;590;48.772;8.846;2023-05-10T13:53:25;20.00;21.60
254;DHT22;590;48.772;8.846;2023-05-10T13:55:53;20.10;20.60
254;DHT22;590;48.772;8.846;2023-05-10T13:58:21;20.10;18.10
254;DHT22;590;48.772;8.846;2023-05-10T14:00:51;20.10;17.50
254;DHT22;590;48.772;8.846;2023-05-10T14:03:19;20.10;19.10
254;DHT22;590;48.772;8.846;2023-05-10T14:05:47;20.20;19.30
254;DHT22;590;48.772;8.846;2023-05-10T14:08:16;20.20;21.20
254;DHT22;590;48.772;8.846;2023-05-10T14:10:44;20.30;18.90
254;DHT22;590;48.772;8.846;2023-05-10T14:13:12;20.30;19.80
254;DHT22;590;48.772;8.846;2023-05-10T14:15:40;20.30;21.20
254;DHT22;590;48.772;8.846;2023-05-10T14:18:09;20.20;20.00
254;DHT22;590;48.772;8.846;2023-05-10T14:20:38;20.10;20.60
254;DHT22;590;48.772;8.846;2023-05-10T14:23:06;19.90;20.40
254;DHT22;590;48.772;8.846;2023-05-10T14:25:37;19.80;19.20
254;DHT22;590;48.772;8.846;2023-05-10T14:28:05;19.70;18.60
254;DHT22;590;48.772;8.846;2023-05-10T14:30:33;19.60;18.80
254;DHT22;590;48.772;8.846;2023-05-10T14:33:02;19.50;19.80
254;DHT22;590;48.772;8.846;2023-05-10T14:35:31;19.40;19.90
254;DHT22;590;48.772;8.846;2023-05-10T14:37:59;19.40;20.40
254;DHT22;590;48.772;8.846;2023-05-10T14:40:27;19.40;19.90
254;DHT22;590;48.772;8.846;2023-05-10T14:42:55;19.40;20.70
254;DHT22;590;48.772;8.846;2023-05-10T14:45:23;19.30;19.40
254;DHT22;590;48.772;8.846;2023-05-10T14:47:52;19.30;19.80
254;DHT22;590;48.772;8.846;2023-05-10T14:50:20;19.30;19.60
254;DHT22;590;48.772;8.846;2023-05-10T14:53:03;19.30;19.90
254;DHT22;590;48.772;8.846;2023-05-10T14:55:31;19.30;19.90
254;DHT22;590;48.772;8.846;2023-05-10T14:58:02;19.30;19.40
254;DHT22;590;48.772;8.846;2023-05-10T15:00:30;19.30;20.00
254;DHT22;590;48.772;8.846;2023-05-10T15:02:58;19.30;19.30
254;DHT22;590;48.772;8.846;2023-05-10T15:05:27;19.40;19.90
254;DHT22;590;48.772;8.846;2023-05-10T15:07:55;19.40;19.00
254;DHT22;590;48.772;8.846;2023-05-10T15:10:25;19.40;18.50
254;DHT22;590;48.772;8.846;2023-05-10T15:12:53;19.40;18.80
254;DHT22;590;48.772;8.846;2023-05-10T15:15:21;19.40;19.90
254;DHT22;590;48.772;8.846;2023-05-10T15:17:49;19.50;20.10
254;DHT22;590;48.772;8.846;2023-05-10T15:20:17;19.50;19.60
254;DHT22;590;48.772;8.846;2023-05-10T15:22:45;19.50;18.70
254;DHT22;590;48.772;8.846;2023-05-10T15:25:13;19.50;18.50
254;DHT22;590;48.772;8.846;2023-05-10T15:27:44;19.50;19.10
254;DHT22;590;48.772;8.846;2023-05-10T15:30:12;19.50;19.40
254;DHT22;590;48.772;8.846;2023-05-10T15:32:40;19.60;20.70
254;DHT22;590;48.772;8.846;2023-05-10T15:35:09;19.50;19.30
254;DHT22;590;48.772;8.846;2023-05-10T15:37:37;19.50;19.30
254;DHT22;590;48.772;8.846;2023-05-10T15:40:06;19.40;18.80
254;DHT22;590;48.772;8.846;2023-05-10T15:42:34;19.40;19.70
254;DHT22;590;48.772;8.846;2023-05-10T15:45:05;19.40;19.90
254;DHT22;590;48.772;8.846;2023-05-10T15:47:33;19.40;20.30
254;DHT22;590;48.772;8.846;2023-05-10T15:50:01;19.40;22.60
254;DHT22;590;48.772;8.846;2023-05-10T15:52:29;19.40;19.80
254;DHT22;590;48.772;8.846;2023-05-10T15:54:57;19.40;19.00
254;DHT22;590;48.772;8.846;2023-05-10T15:57:25;19.30;18.60
254;DHT22;590;48.772;8.846;2023-05-10T15:59:53;19.30;19.50
254;DHT22;590;48.772;8.846;2023-05-10T16:02:23;19.20;19.80
254;DHT22;590;48.772;8.846;2023-05-10T16:04:51;19.20;20.20
254;DHT22;590;48.772;8.846;2023-05-10T16:07:19;19.10;18.90
254;DHT22;590;48.772;8.846;2023-05-10T16:09:47;19.00;20.20
254;DHT22;590;48.772;8.846;2023-05-10T16:12:16;18.90;21.40
254;DHT22;590;48.772;8.846;2023-05-10T16:14:44;18.80;19.50
254;DHT22;590;48.772;8.846;2023-05-10T16:17:12;18.70;19.30
254;DHT22;590;48.772;8.846;2023-05-10T16:19:42;18.60;19.90
254;DHT22;590;48.772;8.846;2023-05-10T16:22:10;18.40;22.30
254;DHT22;590;48.772;8.846;2023-05-10T16:24:38;18.30;21.60
254;DHT22;590;48.772;8.846;2023-05-10T16:27:06;18.20;24.10
254;DHT22;590;48.772;8.846;2023-05-10T16:29:34;18.10;24.60
254;DHT22;590;48.772;8.846;2023-05-10T16:32:02;18.00;24.40
254;DHT22;590;48.772;8.846;2023-05-10T16:34:30;17.90;23.90
254;DHT22;590;48.772;8.846;2023-05-10T16:37:00;17.80;24.60
254;DHT22;590;48.772;8.846;2023-05-10T16:39:28;17.70;25.30
254;DHT22;590;48.772;8.846;2023-05-10T16:41:56;17.70;25.20
254;DHT22;590;48.772;8.846;2023-05-10T16:44:24;17.70;24.00
254;DHT22;590;48.772;8.846;2023-05-10T16:46:52;17.60;23.70
254;DHT22;590;48.772;8.846;2023-05-10T16:49:20;17.50;23.90